sensor_id;sensor_type;location;lat;lon;timestamp;pressure;altitude;pressure_sealevel;temperature;humidity
84764;BME280;74992;51.072;6.088;2024-01-30T00:00:52;102482.03;;;4.73;88.68
84764;BME280;74992;51.072;6.088;2024-01-30T00:03:54;102485.97;;;4.83;88.28
84764;BME280;74992;51.072;6.088;2024-01-30T00:06:55;102479.16;;;4.67;88.20
84764;BME280;74992;51.072;6.088;2024-01-30T00:09:57;102480.84;;;4.83;88.37
84764;BME280;74992;51.072;6.088;2024-01-30T00:12:58;102474.28;;;4.72;89.16
84764;BME280;74992;51.072;6.088;2024-01-30T00:15:59;102464.31;;;4.76;88.28
84764;BME280;74992;51.072;6.088;2024-01-30T00:19:01;102461.75;;;4.76;88.97
84764;BME280;74992;51.072;6.088;2024-01-30T00:22:03;102468.72;;;4.79;88.45
84764;BME280;74992;51.072;6.088;2024-01-30T00:25:05;102454.88;;;4.75;88.62
84764;BME280;74992;51.072;6.088;2024-01-30T00:28:06;102457.59;;;4.78;88.67
84764;BME280;74992;51.072;6.088;2024-01-30T00:31:08;102456.22;;;4.68;88.64
84764;BME280;74992;51.072;6.088;2024-01-30T00:34:12;102456.59;;;4.60;89.16
84764;BME280;74992;51.072;6.088;2024-01-30T00:37:13;102456.22;;;4.68;89.87
84764;BME280;74992;51.072;6.088;2024-01-30T00:40:15;102448.84;;;4.58;88.56
84764;BME280;74992;51.072;6.088;2024-01-30T00:43:18;102456.78;;;4.48;88.77
84764;BME280;74992;51.072;6.088;2024-01-30T00:46:19;102454.41;;;4.51;88.83
84764;BME280;74992;51.072;6.088;2024-01-30T00:49:21;102456.47;;;4.42;89.85
84764;BME280;74992;51.072;6.088;2024-01-30T00:52:22;102456.47;;;4.42;89.41
84764;BME280;74992;51.072;6.088;2024-01-30T00:55:23;102463.88;;;4.37;89.97
84764;BME280;74992;51.072;6.088;2024-01-30T00:58:26;102450.09;;;4.50;89.41
84764;BME280;74992;51.072;6.088;2024-01-30T01:01:27;102456.13;;;4.36;89.09
84764;BME280;74992;51.072;6.088;2024-01-30T01:04:29;102451.09;;;4.37;89.94
84764;BME280;74992;51.072;6.088;2024-01-30T01:07:32;102454.19;;;4.32;90.07
84764;BME280;74992;51.072;6.088;2024-01-30T01:10:33;102448.97;;;4.45;89.82
84764;BME280;74992;51.072;6.088;2024-01-30T01:13:34;102451.09;;;4.37;89.93
84764;BME280;74992;51.072;6.088;2024-01-30T01:16:36;102453.53;;;4.51;89.17
84764;BME280;74992;51.072;6.088;2024-01-30T01:19:37;102443.16;;;4.33;89.40
84764;BME280;74992;51.072;6.088;2024-01-30T01:22:38;102444.84;;;4.32;91.13
84764;BME280;74992;51.072;6.088;2024-01-30T01:25:40;102447.03;;;4.41;90.21
84764;BME280;74992;51.072;6.088;2024-01-30T01:28:41;102448.19;;;4.31;90.08
84764;BME280;74992;51.072;6.088;2024-01-30T01:31:43;102447.41;;;4.32;89.39
84764;BME280;74992;51.072;6.088;2024-01-30T01:34:44;102442.38;;;4.34;89.64
84764;BME280;74992;51.072;6.088;2024-01-30T01:37:45;102441.25;;;4.29;90.49
84764;BME280;74992;51.072;6.088;2024-01-30T01:40:47;102439.13;;;4.22;89.94
84764;BME280;74992;51.072;6.088;2024-01-30T01:43:48;102438.41;;;4.24;90.03
84764;BME280;74992;51.072;6.088;2024-01-30T01:46:51;102431.75;;;4.12;90.58
84764;BME280;74992;51.072;6.088;2024-01-30T01:49:52;102433.59;;;4.14;90.49
84764;BME280;74992;51.072;6.088;2024-01-30T01:52:54;102435.81;;;4.08;91.08
84764;BME280;74992;51.072;6.088;2024-01-30T01:55:56;102435.34;;;4.15;91.02
84764;BME280;74992;51.072;6.088;2024-01-30T01:59:06;102432.53;;;4.10;90.79
84764;BME280;74992;51.072;6.088;2024-01-30T02:02:11;102431.13;;;4.16;90.72
84764;BME280;74992;51.072;6.088;2024-01-30T02:05:15;102423.56;;;4.17;90.81
84764;BME280;74992;51.072;6.088;2024-01-30T02:08:16;102421.69;;;4.15;90.96
84764;BME280;74992;51.072;6.088;2024-01-30T02:11:18;102415.81;;;4.01;90.90
84764;BME280;74992;51.072;6.088;2024-01-30T02:14:20;102420.91;;;4.01;90.99
84764;BME280;74992;51.072;6.088;2024-01-30T02:17:22;102408.00;;;3.98;90.88
84764;BME280;74992;51.072;6.088;2024-01-30T02:20:25;102413.88;;;3.97;90.63
84764;BME280;74992;51.072;6.088;2024-01-30T02:23:27;102409.56;;;3.96;90.79
84764;BME280;74992;51.072;6.088;2024-01-30T02:26:28;102412.81;;;3.93;90.83
84764;BME280;74992;51.072;6.088;2024-01-30T02:29:30;102411.34;;;3.97;91.49
84764;BME280;74992;51.072;6.088;2024-01-30T02:32:31;102400.75;;;3.91;90.67
84764;BME280;74992;51.072;6.088;2024-01-30T02:35:32;102407.47;;;3.89;91.26
84764;BME280;74992;51.072;6.088;2024-01-30T02:38:35;102403.41;;;3.92;91.04
84764;BME280;74992;51.072;6.088;2024-01-30T02:41:36;102406.81;;;3.93;90.93
84764;BME280;74992;51.072;6.088;2024-01-30T02:44:38;102403.47;;;4.08;91.03
84764;BME280;74992;51.072;6.088;2024-01-30T02:47:40;102400.38;;;4.14;90.63
84764;BME280;74992;51.072;6.088;2024-01-30T02:50:42;102399.19;;;4.07;90.39
84764;BME280;74992;51.072;6.088;2024-01-30T02:53:43;102387.28;;;4.08;90.35
84764;BME280;74992;51.072;6.088;2024-01-30T02:56:44;102394.50;;;4.00;90.28
84764;BME280;74992;51.072;6.088;2024-01-30T02:59:46;102395.06;;;3.95;91.14
84764;BME280;74992;51.072;6.088;2024-01-30T03:02:47;102388.34;;;3.97;90.68
84764;BME280;74992;51.072;6.088;2024-01-30T03:05:48;102397.78;;;3.98;90.77
84764;BME280;74992;51.072;6.088;2024-01-30T03:08:50;102400.59;;;3.88;90.84
84764;BME280;74992;51.072;6.088;2024-01-30T03:11:51;102393.28;;;3.94;91.28
84764;BME280;74992;51.072;6.088;2024-01-30T03:14:53;102397.16;;;3.87;91.00
84764;BME280;74992;51.072;6.088;2024-01-30T03:17:54;102404.28;;;3.93;91.34
84764;BME280;74992;51.072;6.088;2024-01-30T03:20:55;102401.63;;;3.91;91.49
84764;BME280;74992;51.072;6.088;2024-01-30T03:23:57;102397.50;;;3.93;91.81
84764;BME280;74992;51.072;6.088;2024-01-30T03:26:58;102390.81;;;3.95;90.38
84764;BME280;74992;51.072;6.088;2024-01-30T03:29:59;102398.22;;;4.05;90.10
84764;BME280;74992;51.072;6.088;2024-01-30T03:33:01;102390.34;;;4.02;89.88
84764;BME280;74992;51.072;6.088;2024-01-30T03:36:04;102387.13;;;3.90;91.04
84764;BME280;74992;51.072;6.088;2024-01-30T03:39:05;102385.28;;;3.88;91.40
84764;BME280;74992;51.072;6.088;2024-01-30T03:42:07;102374.81;;;3.83;91.63
84764;BME280;74992;51.072;6.088;2024-01-30T03:45:08;102375.59;;;3.82;91.78
84764;BME280;74992;51.072;6.088;2024-01-30T03:48:10;102378.66;;;3.91;92.73
84764;BME280;74992;51.072;6.088;2024-01-30T03:51:12;102381.75;;;3.86;91.63
84764;BME280;74992;51.072;6.088;2024-01-30T03:54:15;102374.19;;;3.87;91.30
84764;BME280;74992;51.072;6.088;2024-01-30T03:57:17;102373.31;;;3.87;91.58
84764;BME280;74992;51.072;6.088;2024-01-30T04:00:18;102379.19;;;3.86;91.71
84764;BME280;74992;51.072;6.088;2024-01-30T04:03:20;102372.50;;;3.88;91.38
84764;BME280;74992;51.072;6.088;2024-01-30T04:06:21;102377.59;;;3.88;91.32
84764;BME280;74992;51.072;6.088;2024-01-30T04:09:22;102371.91;;;3.77;91.63
84764;BME280;74992;51.072;6.088;2024-01-30T04:12:26;102367.84;;;3.80;90.90
84764;BME280;74992;51.072;6.088;2024-01-30T04:15:27;102364.25;;;3.77;90.79
84764;BME280;74992;51.072;6.088;2024-01-30T04:18:29;102362.03;;;3.83;91.45
84764;BME280;74992;51.072;6.088;2024-01-30T04:21:31;102364.25;;;3.77;91.16
84764;BME280;74992;51.072;6.088;2024-01-30T04:24:34;102365.81;;;3.75;91.79
84764;BME280;74992;51.072;6.088;2024-01-30T04:27:35;102366.78;;;3.77;91.87
84764;BME280;74992;51.072;6.088;2024-01-30T04:30:37;102362.84;;;3.82;91.95
84764;BME280;74992;51.072;6.088;2024-01-30T04:33:39;102372.84;;;3.79;92.20
84764;BME280;74992;51.072;6.088;2024-01-30T04:36:44;102367.84;;;3.80;91.39
84764;BME280;74992;51.072;6.088;2024-01-30T04:39:45;102369.94;;;3.88;91.54
84764;BME280;74992;51.072;6.088;2024-01-30T04:42:47;102373.94;;;3.83;91.50
84764;BME280;74992;51.072;6.088;2024-01-30T04:45:49;102364.47;;;3.81;91.38
84764;BME280;74992;51.072;6.088;2024-01-30T04:48:50;102368.03;;;3.84;91.51
84764;BME280;74992;51.072;6.088;2024-01-30T04:51:52;102377.97;;;3.79;91.44
84764;BME280;74992;51.072;6.088;2024-01-30T04:54:53;102365.75;;;3.73;91.62
84764;BME280;74992;51.072;6.088;2024-01-30T04:57:55;102359.81;;;3.89;91.45
84764;BME280;74992;51.072;6.088;2024-01-30T05:00:56;102363.00;;;3.85;91.61
84764;BME280;74992;51.072;6.088;2024-01-30T05:03:57;102356.94;;;3.83;91.87
84764;BME280;74992;51.072;6.088;2024-01-30T05:06:59;102354.78;;;3.91;92.12
84764;BME280;74992;51.072;6.088;2024-01-30T05:10:00;102359.19;;;3.93;92.17
84764;BME280;74992;51.072;6.088;2024-01-30T05:13:02;102358.94;;;3.89;91.90
84764;BME280;74992;51.072;6.088;2024-01-30T05:16:06;102352.31;;;3.92;92.09
84764;BME280;74992;51.072;6.088;2024-01-30T05:19:07;102347.66;;;4.00;92.13
84764;BME280;74992;51.072;6.088;2024-01-30T05:22:09;102351.69;;;4.11;92.16
84764;BME280;74992;51.072;6.088;2024-01-30T05:25:14;102358.63;;;4.14;92.39
84764;BME280;74992;51.072;6.088;2024-01-30T05:28:16;102341.41;;;4.26;92.83
84764;BME280;74992;51.072;6.088;2024-01-30T05:31:17;102340.31;;;4.37;93.47
84764;BME280;74992;51.072;6.088;2024-01-30T05:34:18;102338.50;;;4.51;93.67
84764;BME280;74992;51.072;6.088;2024-01-30T05:37:20;102331.63;;;4.50;92.57
84764;BME280;74992;51.072;6.088;2024-01-30T05:40:21;102328.13;;;4.64;93.30
84764;BME280;74992;51.072;6.088;2024-01-30T05:43:22;102327.00;;;4.59;92.81
84764;BME280;74992;51.072;6.088;2024-01-30T05:46:24;102336.44;;;4.60;92.41
84764;BME280;74992;51.072;6.088;2024-01-30T05:49:25;102334.44;;;4.54;92.66
84764;BME280;74992;51.072;6.088;2024-01-30T05:52:27;102333.63;;;4.55;92.06
84764;BME280;74992;51.072;6.088;2024-01-30T05:55:28;102323.72;;;4.61;92.43
84764;BME280;74992;51.072;6.088;2024-01-30T05:58:30;102318.78;;;4.64;91.72
84764;BME280;74992;51.072;6.088;2024-01-30T06:01:32;102325.19;;;4.89;91.80
84764;BME280;74992;51.072;6.088;2024-01-30T06:04:34;102320.69;;;4.85;92.99
84764;BME280;74992;51.072;6.088;2024-01-30T06:07:36;102321.19;;;4.78;92.09
84764;BME280;74992;51.072;6.088;2024-01-30T06:10:37;102324.28;;;4.72;91.64
84764;BME280;74992;51.072;6.088;2024-01-30T06:13:39;102322.38;;;4.68;92.31
84764;BME280;74992;51.072;6.088;2024-01-30T06:16:40;102330.13;;;4.69;91.23
84764;BME280;74992;51.072;6.088;2024-01-30T06:19:42;102328.28;;;4.67;91.71
84764;BME280;74992;51.072;6.088;2024-01-30T06:22:43;102336.69;;;4.64;92.17
84764;BME280;74992;51.072;6.088;2024-01-30T06:25:44;102329.81;;;4.63;92.40
84764;BME280;74992;51.072;6.088;2024-01-30T06:28:46;102327.25;;;4.63;91.94
84764;BME280;74992;51.072;6.088;2024-01-30T06:31:47;102332.53;;;4.66;92.50
84764;BME280;74992;51.072;6.088;2024-01-30T06:34:48;102320.78;;;4.70;92.21
84764;BME280;74992;51.072;6.088;2024-01-30T06:37:50;102330.28;;;4.73;92.32
84764;BME280;74992;51.072;6.088;2024-01-30T06:40:51;102324.28;;;4.72;92.18
84764;BME280;74992;51.072;6.088;2024-01-30T06:43:52;102329.41;;;4.72;92.25
84764;BME280;74992;51.072;6.088;2024-01-30T06:46:54;102330.19;;;4.71;92.99
84764;BME280;74992;51.072;6.088;2024-01-30T06:49:55;102331.97;;;4.72;92.59
84764;BME280;74992;51.072;6.088;2024-01-30T06:52:56;102337.25;;;4.75;92.33
84764;BME280;74992;51.072;6.088;2024-01-30T06:55:58;102331.41;;;4.78;92.05
84764;BME280;74992;51.072;6.088;2024-01-30T06:58:59;102334.13;;;4.81;92.12
84764;BME280;74992;51.072;6.088;2024-01-30T07:02:01;102330.22;;;4.87;92.23
84764;BME280;74992;51.072;6.088;2024-01-30T07:05:02;102336.44;;;4.92;92.52
84764;BME280;74992;51.072;6.088;2024-01-30T07:08:04;102335.22;;;5.02;93.07
84764;BME280;74992;51.072;6.088;2024-01-30T07:11:06;102343.31;;;5.10;92.47
84764;BME280;74992;51.072;6.088;2024-01-30T07:14:08;102349.19;;;5.25;93.06
84764;BME280;74992;51.072;6.088;2024-01-30T07:17:10;102356.03;;;5.42;94.24
84764;BME280;74992;51.072;6.088;2024-01-30T07:20:11;102361.22;;;5.44;93.92
84764;BME280;74992;51.072;6.088;2024-01-30T07:23:13;102357.06;;;5.46;92.68
84764;BME280;74992;51.072;6.088;2024-01-30T07:26:17;102355.59;;;5.51;92.40
84764;BME280;74992;51.072;6.088;2024-01-30T07:29:18;102362.34;;;5.49;92.60
84764;BME280;74992;51.072;6.088;2024-01-30T07:32:20;102368.25;;;5.48;92.24
84764;BME280;74992;51.072;6.088;2024-01-30T07:35:21;102363.16;;;5.48;92.39
84764;BME280;74992;51.072;6.088;2024-01-30T07:38:23;102376.03;;;5.49;92.87
84764;BME280;74992;51.072;6.088;2024-01-30T07:41:24;102375.44;;;5.55;93.02
84764;BME280;74992;51.072;6.088;2024-01-30T07:44:25;102376.94;;;5.68;93.57
84764;BME280;74992;51.072;6.088;2024-01-30T07:47:27;102386.03;;;5.79;93.33
84764;BME280;74992;51.072;6.088;2024-01-30T07:50:28;102382.41;;;5.92;94.35
84764;BME280;74992;51.072;6.088;2024-01-30T07:53:30;102393.81;;;5.98;93.59
84764;BME280;74992;51.072;6.088;2024-01-30T07:56:31;102393.25;;;6.04;92.85
84764;BME280;74992;51.072;6.088;2024-01-30T07:59:33;102394.94;;;6.03;92.30
84764;BME280;74992;51.072;6.088;2024-01-30T08:02:34;102394.13;;;6.04;92.20
84764;BME280;74992;51.072;6.088;2024-01-30T08:05:36;102401.97;;;6.07;91.67
84764;BME280;74992;51.072;6.088;2024-01-30T08:08:39;102406.28;;;6.08;92.52
84764;BME280;74992;51.072;6.088;2024-01-30T08:11:40;102428.53;;;6.09;91.73
84764;BME280;74992;51.072;6.088;2024-01-30T08:14:41;102430.94;;;6.24;93.03
84764;BME280;74992;51.072;6.088;2024-01-30T08:17:43;102435.91;;;6.57;94.29
84764;BME280;74992;51.072;6.088;2024-01-30T08:20:45;102434.53;;;6.83;93.86
84764;BME280;74992;51.072;6.088;2024-01-30T08:23:46;102438.94;;;7.05;93.24
84764;BME280;74992;51.072;6.088;2024-01-30T08:26:48;102442.75;;;7.32;93.08
84764;BME280;74992;51.072;6.088;2024-01-30T08:29:49;102454.03;;;7.55;92.35
84764;BME280;74992;51.072;6.088;2024-01-30T08:32:51;102454.72;;;7.72;90.82
84764;BME280;74992;51.072;6.088;2024-01-30T08:35:53;102454.56;;;7.88;91.15
84764;BME280;74992;51.072;6.088;2024-01-30T08:38:55;102460.22;;;8.00;90.18
84764;BME280;74992;51.072;6.088;2024-01-30T08:41:56;102448.47;;;8.07;90.30
84764;BME280;74992;51.072;6.088;2024-01-30T08:44:58;102457.75;;;8.24;89.67
84764;BME280;74992;51.072;6.088;2024-01-30T08:47:59;102453.31;;;8.41;88.80
84764;BME280;74992;51.072;6.088;2024-01-30T08:51:00;102448.63;;;8.53;88.75
84764;BME280;74992;51.072;6.088;2024-01-30T08:54:02;102460.22;;;8.64;87.78
84764;BME280;74992;51.072;6.088;2024-01-30T08:57:04;102458.09;;;8.76;87.42
84764;BME280;74992;51.072;6.088;2024-01-30T09:00:06;102462.94;;;8.91;87.19
84764;BME280;74992;51.072;6.088;2024-01-30T09:03:09;102458.28;;;9.03;86.15
84764;BME280;74992;51.072;6.088;2024-01-30T09:06:11;102457.13;;;9.19;86.00
84764;BME280;74992;51.072;6.088;2024-01-30T09:09:12;102455.28;;;9.39;85.56
84764;BME280;74992;51.072;6.088;2024-01-30T09:12:14;102458.50;;;9.57;84.76
84764;BME280;74992;51.072;6.088;2024-01-30T09:15:15;102458.22;;;9.74;84.15
84764;BME280;74992;51.072;6.088;2024-01-30T09:18:18;102453.59;;;9.90;83.31
84764;BME280;74992;51.072;6.088;2024-01-30T09:21:19;102466.72;;;9.97;82.82
84764;BME280;74992;51.072;6.088;2024-01-30T09:24:21;102467.63;;;9.99;82.89
84764;BME280;74992;51.072;6.088;2024-01-30T09:27:22;102469.28;;;9.97;82.81
84764;BME280;74992;51.072;6.088;2024-01-30T09:30:23;102469.13;;;9.92;83.47
84764;BME280;74992;51.072;6.088;2024-01-30T09:33:25;102476.84;;;9.92;82.68
84764;BME280;74992;51.072;6.088;2024-01-30T09:36:26;102474.38;;;9.95;82.13
84764;BME280;74992;51.072;6.088;2024-01-30T09:39:27;102479.66;;;9.98;83.06
84764;BME280;74992;51.072;6.088;2024-01-30T09:42:35;102472.09;;;10.04;82.01
84764;BME280;74992;51.072;6.088;2024-01-30T09:45:37;102476.66;;;10.11;81.14
84764;BME280;74992;51.072;6.088;2024-01-30T09:48:41;102483.13;;;10.24;80.29
84764;BME280;74992;51.072;6.088;2024-01-30T09:51:42;102477.34;;;10.31;80.64
84764;BME280;74992;51.072;6.088;2024-01-30T09:54:44;102477.47;;;10.36;80.16
84764;BME280;74992;51.072;6.088;2024-01-30T09:57:46;102474.16;;;10.40;79.57
84764;BME280;74992;51.072;6.088;2024-01-30T10:00:47;102479.53;;;10.46;79.22
84764;BME280;74992;51.072;6.088;2024-01-30T10:03:50;102484.94;;;10.54;79.33
84764;BME280;74992;51.072;6.088;2024-01-30T10:06:53;102483.53;;;10.65;78.44
84764;BME280;74992;51.072;6.088;2024-01-30T10:09:54;102480.31;;;10.72;78.25
84764;BME280;74992;51.072;6.088;2024-01-30T10:12:58;102475.41;;;10.79;77.82
84764;BME280;74992;51.072;6.088;2024-01-30T10:16:00;102479.94;;;10.88;77.59
84764;BME280;74992;51.072;6.088;2024-01-30T10:19:03;102469.00;;;10.97;77.54
84764;BME280;74992;51.072;6.088;2024-01-30T10:22:04;102470.94;;;11.04;77.18
84764;BME280;74992;51.072;6.088;2024-01-30T10:25:06;102487.47;;;11.10;77.43
84764;BME280;74992;51.072;6.088;2024-01-30T10:28:08;102478.13;;;11.14;77.19
84764;BME280;74992;51.072;6.088;2024-01-30T10:31:09;102486.88;;;11.19;77.42
84764;BME280;74992;51.072;6.088;2024-01-30T10:34:10;102483.50;;;11.22;77.35
84764;BME280;74992;51.072;6.088;2024-01-30T10:37:12;102490.53;;;11.26;76.80
84764;BME280;74992;51.072;6.088;2024-01-30T10:40:15;102473.31;;;11.26;77.21
84764;BME280;74992;51.072;6.088;2024-01-30T10:43:19;102482.13;;;11.34;77.54
84764;BME280;74992;51.072;6.088;2024-01-30T10:46:30;102482.31;;;11.40;76.54
84764;BME280;74992;51.072;6.088;2024-01-30T10:49:33;102481.63;;;11.46;76.82
84764;BME280;74992;51.072;6.088;2024-01-30T10:52:36;102486.94;;;11.52;76.71
84764;BME280;74992;51.072;6.088;2024-01-30T10:55:38;102492.31;;;11.58;76.65
84764;BME280;74992;51.072;6.088;2024-01-30T10:58:40;102486.31;;;11.61;76.50
84764;BME280;74992;51.072;6.088;2024-01-30T11:01:42;102488.22;;;11.68;76.35
84764;BME280;74992;51.072;6.088;2024-01-30T11:04:45;102489.19;;;11.72;76.00
84764;BME280;74992;51.072;6.088;2024-01-30T11:07:49;102492.69;;;11.74;76.25
84764;BME280;74992;51.072;6.088;2024-01-30T11:10:56;102495.25;;;11.72;76.53
84764;BME280;74992;51.072;6.088;2024-01-30T11:14:00;102498.56;;;11.68;76.96
84764;BME280;74992;51.072;6.088;2024-01-30T11:17:03;102504.56;;;11.67;76.88
84764;BME280;74992;51.072;6.088;2024-01-30T11:20:05;102498.53;;;11.66;76.36
84764;BME280;74992;51.072;6.088;2024-01-30T11:23:11;102503.81;;;11.69;76.75
84764;BME280;74992;51.072;6.088;2024-01-30T11:26:12;102500.28;;;11.67;76.69
84764;BME280;74992;51.072;6.088;2024-01-30T11:29:14;102502.00;;;11.67;77.03
84764;BME280;74992;51.072;6.088;2024-01-30T11:32:22;102496.09;;;11.71;76.60
84764;BME280;74992;51.072;6.088;2024-01-30T11:35:24;102499.59;;;11.73;76.84
84764;BME280;74992;51.072;6.088;2024-01-30T11:38:26;102494.41;;;11.73;77.19
84764;BME280;74992;51.072;6.088;2024-01-30T11:41:29;102499.53;;;11.72;76.61
84764;BME280;74992;51.072;6.088;2024-01-30T11:44:31;102499.53;;;11.72;77.26
84764;BME280;74992;51.072;6.088;2024-01-30T11:47:35;102500.38;;;11.71;77.00
84764;BME280;74992;51.072;6.088;2024-01-30T11:50:37;102497.91;;;11.75;76.71
84764;BME280;74992;51.072;6.088;2024-01-30T11:53:39;102492.00;;;11.79;76.46
84764;BME280;74992;51.072;6.088;2024-01-30T11:56:41;102493.00;;;11.84;76.62
84764;BME280;74992;51.072;6.088;2024-01-30T11:59:43;102487.06;;;11.88;76.76
84764;BME280;74992;51.072;6.088;2024-01-30T12:02:49;102484.50;;;11.88;76.34
84764;BME280;74992;51.072;6.088;2024-01-30T12:05:55;102484.38;;;11.84;76.24
84764;BME280;74992;51.072;6.088;2024-01-30T12:08:58;102488.66;;;11.82;76.68
84764;BME280;74992;51.072;6.088;2024-01-30T12:12:00;102487.78;;;11.81;76.78
84764;BME280;74992;51.072;6.088;2024-01-30T12:15:01;102486.09;;;11.83;76.76
84764;BME280;74992;51.072;6.088;2024-01-30T12:18:07;102482.59;;;11.81;77.15
84764;BME280;74992;51.072;6.088;2024-01-30T12:21:10;102491.06;;;11.77;77.23
84764;BME280;74992;51.072;6.088;2024-01-30T12:24:12;102490.06;;;11.72;77.62
84764;BME280;74992;51.072;6.088;2024-01-30T12:27:15;102493.53;;;11.73;77.44
84764;BME280;74992;51.072;6.088;2024-01-30T12:30:16;102488.38;;;11.73;78.04
84764;BME280;74992;51.072;6.088;2024-01-30T12:33:18;102495.25;;;11.72;77.57
84764;BME280;74992;51.072;6.088;2024-01-30T12:36:23;102490.88;;;11.69;78.43
84764;BME280;74992;51.072;6.088;2024-01-30T12:39:25;102497.66;;;11.66;78.51
84764;BME280;74992;51.072;6.088;2024-01-30T12:42:26;102500.16;;;11.63;78.26
84764;BME280;74992;51.072;6.088;2024-01-30T12:45:28;102499.25;;;11.61;78.74
84764;BME280;74992;51.072;6.088;2024-01-30T12:48:29;102504.38;;;11.59;78.47
84764;BME280;74992;51.072;6.088;2024-01-30T12:51:34;102506.13;;;11.60;78.64
84764;BME280;74992;51.072;6.088;2024-01-30T12:54:35;102516.63;;;11.66;78.70
84764;BME280;74992;51.072;6.088;2024-01-30T12:57:37;102517.53;;;11.68;77.99
84764;BME280;74992;51.072;6.088;2024-01-30T13:00:39;102535.66;;;11.68;77.88
84764;BME280;74992;51.072;6.088;2024-01-30T13:03:40;102528.72;;;11.67;77.72
84764;BME280;74992;51.072;6.088;2024-01-30T13:06:42;102533.03;;;11.67;78.17
84764;BME280;74992;51.072;6.088;2024-01-30T13:09:43;102532.06;;;11.63;78.32
84764;BME280;74992;51.072;6.088;2024-01-30T13:12:45;102527.69;;;11.61;77.68
84764;BME280;74992;51.072;6.088;2024-01-30T13:15:48;102531.28;;;11.66;77.95
84764;BME280;74992;51.072;6.088;2024-01-30T13:18:49;102527.00;;;11.68;77.51
84764;BME280;74992;51.072;6.088;2024-01-30T13:21:51;102527.97;;;11.70;77.30
84764;BME280;74992;51.072;6.088;2024-01-30T13:24:53;102540.97;;;11.73;77.77
84764;BME280;74992;51.072;6.088;2024-01-30T13:27:54;102542.13;;;11.83;77.34
84764;BME280;74992;51.072;6.088;2024-01-30T13:30:55;102535.63;;;11.98;77.54
84764;BME280;74992;51.072;6.088;2024-01-30T13:33:57;102537.59;;;12.07;76.90
84764;BME280;74992;51.072;6.088;2024-01-30T13:36:58;102536.22;;;12.21;76.17
84764;BME280;74992;51.072;6.088;2024-01-30T13:40:00;102526.78;;;12.23;74.52
84764;BME280;74992;51.072;6.088;2024-01-30T13:43:01;102532.03;;;12.26;74.18
84764;BME280;74992;51.072;6.088;2024-01-30T13:46:03;102534.56;;;12.25;73.54
84764;BME280;74992;51.072;6.088;2024-01-30T13:49:04;102541.28;;;12.17;73.11
84764;BME280;74992;51.072;6.088;2024-01-30T13:52:07;102547.06;;;12.07;73.43
84764;BME280;74992;51.072;6.088;2024-01-30T13:55:08;102551.16;;;11.98;73.87
84764;BME280;74992;51.072;6.088;2024-01-30T13:58:09;102547.44;;;11.89;74.49
84764;BME280;74992;51.072;6.088;2024-01-30T14:01:11;102549.09;;;11.85;74.18
84764;BME280;74992;51.072;6.088;2024-01-30T14:04:12;102547.13;;;11.78;74.05
84764;BME280;74992;51.072;6.088;2024-01-30T14:07:14;102561.47;;;11.67;73.44
84764;BME280;74992;51.072;6.088;2024-01-30T14:10:18;102559.72;;;11.66;72.81
84764;BME280;74992;51.072;6.088;2024-01-30T14:13:19;102565.50;;;11.57;72.01
84764;BME280;74992;51.072;6.088;2024-01-30T14:16:22;102553.28;;;11.52;71.03
84764;BME280;74992;51.072;6.088;2024-01-30T14:19:24;102564.19;;;11.42;70.92
84764;BME280;74992;51.072;6.088;2024-01-30T14:22:25;102569.13;;;11.34;70.76
84764;BME280;74992;51.072;6.088;2024-01-30T14:25:28;102567.41;;;11.34;70.19
84764;BME280;74992;51.072;6.088;2024-01-30T14:28:29;102567.34;;;11.31;69.83
84764;BME280;74992;51.072;6.088;2024-01-30T14:31:32;102569.81;;;11.27;69.84
84764;BME280;74992;51.072;6.088;2024-01-30T14:34:33;102582.63;;;11.24;70.36
84764;BME280;74992;51.072;6.088;2024-01-30T14:37:37;102583.34;;;11.20;70.27
84764;BME280;74992;51.072;6.088;2024-01-30T14:40:39;102592.78;;;11.18;70.53
84764;BME280;74992;51.072;6.088;2024-01-30T14:43:41;102600.44;;;11.15;70.64
84764;BME280;74992;51.072;6.088;2024-01-30T14:46:42;102603.75;;;11.10;70.40
84764;BME280;74992;51.072;6.088;2024-01-30T14:49:44;102608.81;;;11.07;70.85
84764;BME280;74992;51.072;6.088;2024-01-30T14:52:45;102615.66;;;11.05;70.84
84764;BME280;74992;51.072;6.088;2024-01-30T14:55:47;102615.63;;;11.04;69.25
84764;BME280;74992;51.072;6.088;2024-01-30T14:58:49;102622.44;;;11.02;67.90
84764;BME280;74992;51.072;6.088;2024-01-30T15:01:50;102617.13;;;10.97;66.12
84764;BME280;74992;51.072;6.088;2024-01-30T15:04:51;102620.41;;;10.92;65.84
84764;BME280;74992;51.072;6.088;2024-01-30T15:07:53;102631.34;;;10.85;66.21
84764;BME280;74992;51.072;6.088;2024-01-30T15:10:54;102639.88;;;10.82;65.53
84764;BME280;74992;51.072;6.088;2024-01-30T15:13:57;102637.16;;;10.77;64.66
84764;BME280;74992;51.072;6.088;2024-01-30T15:16:58;102643.91;;;10.74;63.89
84764;BME280;74992;51.072;6.088;2024-01-30T15:20:00;102647.13;;;10.67;65.33
84764;BME280;74992;51.072;6.088;2024-01-30T15:23:03;102653.00;;;10.63;64.72
84764;BME280;74992;51.072;6.088;2024-01-30T15:26:06;102653.81;;;10.62;65.10
84764;BME280;74992;51.072;6.088;2024-01-30T15:29:07;102659.56;;;10.53;65.40
84764;BME280;74992;51.072;6.088;2024-01-30T15:32:09;102664.72;;;10.53;64.70
84764;BME280;74992;51.072;6.088;2024-01-30T15:35:10;102673.09;;;10.46;64.40
84764;BME280;74992;51.072;6.088;2024-01-30T15:38:12;102672.34;;;10.50;63.43
84764;BME280;74992;51.072;6.088;2024-01-30T15:41:14;102676.50;;;10.45;63.52
84764;BME280;74992;51.072;6.088;2024-01-30T15:44:15;102684.75;;;10.35;64.33
84764;BME280;74992;51.072;6.088;2024-01-30T15:47:17;102685.25;;;10.25;64.30
84764;BME280;74992;51.072;6.088;2024-01-30T15:50:18;102686.69;;;10.18;64.26
84764;BME280;74992;51.072;6.088;2024-01-30T15:53:20;102688.13;;;10.10;64.64
84764;BME280;74992;51.072;6.088;2024-01-30T15:56:22;102681.84;;;10.03;65.01